sensor_id;sensor_type;location;lat;lon;timestamp;P1;durP1;ratioP1;P2;durP2;ratioP2
59161;SDS011;44942;48.936;8.260;2022-11-18T00:00:38;5.97;;;4.63;;
59161;SDS011;44942;48.936;8.260;2022-11-18T00:05:39;7.13;;;5.67;;
59161;SDS011;44942;48.936;8.260;2022-11-18T00:10:40;6.87;;;5.33;;
59161;SDS011;44942;48.936;8.260;2022-11-18T00:15:40;5.87;;;4.90;;
59161;SDS011;44942;48.936;8.260;2022-11-18T00:20:41;6.05;;;5.10;;
59161;SDS011;44942;48.936;8.260;2022-11-18T00:25:42;6.18;;;5.00;;
59161;SDS011;44942;48.936;8.260;2022-11-18T00:30:42;5.87;;;4.57;;
59161;SDS011;44942;48.936;8.260;2022-11-18T00:35:43;5.57;;;3.97;;
59161;SDS011;44942;48.936;8.260;2022-11-18T00:41:02;5.85;;;4.20;;
59161;SDS011;44942;48.936;8.260;2022-11-18T00:46:10;5.28;;;3.72;;
59161;SDS011;44942;48.936;8.260;2022-11-18T00:56:13;4.60;;;4.10;;
59161;SDS011;44942;48.936;8.260;2022-11-18T01:01:14;4.60;;;4.10;;
59161;SDS011;44942;48.936;8.260;2022-11-18T01:06:14;7.43;;;4.37;;
59161;SDS011;44942;48.936;8.260;2022-11-18T01:11:15;4.10;;;3.70;;
59161;SDS011;44942;48.936;8.260;2022-11-18T01:16:34;4.10;;;3.70;;
59161;SDS011;44942;48.936;8.260;2022-11-18T01:21:35;4.60;;;3.60;;
59161;SDS011;44942;48.936;8.260;2022-11-18T01:26:35;5.20;;;3.67;;
59161;SDS011;44942;48.936;8.260;2022-11-18T01:31:36;5.43;;;3.63;;
59161;SDS011;44942;48.936;8.260;2022-11-18T01:36:37;3.92;;;3.22;;
59161;SDS011;44942;48.936;8.260;2022-11-18T01:41:38;4.33;;;3.90;;
59161;SDS011;44942;48.936;8.260;2022-11-18T01:46:38;3.60;;;3.07;;
59161;SDS011;44942;48.936;8.260;2022-11-18T01:51:47;3.50;;;3.20;;
59161;SDS011;44942;48.936;8.260;2022-11-18T01:56:53;4.25;;;3.20;;
59161;SDS011;44942;48.936;8.260;2022-11-18T02:01:56;4.90;;;3.17;;
59161;SDS011;44942;48.936;8.260;2022-11-18T02:06:59;3.42;;;3.13;;
59161;SDS011;44942;48.936;8.260;2022-11-18T02:12:01;4.22;;;3.25;;
59161;SDS011;44942;48.936;8.260;2022-11-18T02:17:12;4.22;;;2.85;;
59161;SDS011;44942;48.936;8.260;2022-11-18T02:38:41;4.82;;;2.95;;
59161;SDS011;44942;48.936;8.260;2022-11-18T02:43:49;4.13;;;3.17;;
59161;SDS011;44942;48.936;8.260;2022-11-18T02:48:57;3.42;;;3.13;;
59161;SDS011;44942;48.936;8.260;2022-11-18T02:54:02;2.92;;;2.60;;
59161;SDS011;44942;48.936;8.260;2022-11-18T02:59:06;3.80;;;2.67;;
59161;SDS011;44942;48.936;8.260;2022-11-18T03:04:06;3.43;;;2.80;;
59161;SDS011;44942;48.936;8.260;2022-11-18T03:09:08;3.43;;;2.90;;
59161;SDS011;44942;48.936;8.260;2022-11-18T03:14:18;2.97;;;2.53;;
59161;SDS011;44942;48.936;8.260;2022-11-18T03:24:50;3.28;;;2.50;;
59161;SDS011;44942;48.936;8.260;2022-11-18T03:30:05;3.40;;;2.45;;
59161;SDS011;44942;48.936;8.260;2022-11-18T03:35:13;2.55;;;2.30;;
59161;SDS011;44942;48.936;8.260;2022-11-18T03:40:28;2.28;;;2.08;;
59161;SDS011;44942;48.936;8.260;2022-11-18T03:45:35;3.25;;;2.03;;
59161;SDS011;44942;48.936;8.260;2022-11-18T03:50:44;3.08;;;2.13;;
59161;SDS011;44942;48.936;8.260;2022-11-18T03:55:50;2.92;;;2.10;;
59161;SDS011;44942;48.936;8.260;2022-11-18T04:00:55;2.30;;;2.10;;
59161;SDS011;44942;48.936;8.260;2022-11-18T04:11:57;2.40;;;2.20;;
59161;SDS011;44942;48.936;8.260;2022-11-18T04:17:12;3.10;;;2.22;;
59161;SDS011;44942;48.936;8.260;2022-11-18T04:22:14;3.10;;;2.38;;
59161;SDS011;44942;48.936;8.260;2022-11-18T04:27:15;2.20;;;1.77;;
59161;SDS011;44942;48.936;8.260;2022-11-18T04:32:15;2.90;;;2.37;;
59161;SDS011;44942;48.936;8.260;2022-11-18T04:37:16;2.13;;;1.93;;
59161;SDS011;44942;48.936;8.260;2022-11-18T04:42:16;2.20;;;2.00;;
59161;SDS011;44942;48.936;8.260;2022-11-18T04:47:17;2.70;;;1.87;;
59161;SDS011;44942;48.936;8.260;2022-11-18T04:52:17;3.67;;;2.10;;
59161;SDS011;44942;48.936;8.260;2022-11-18T04:57:18;3.37;;;1.70;;
59161;SDS011;44942;48.936;8.260;2022-11-18T05:02:19;2.40;;;2.13;;
59161;SDS011;44942;48.936;8.260;2022-11-18T05:07:19;2.87;;;1.87;;
59161;SDS011;44942;48.936;8.260;2022-11-18T05:12:20;3.37;;;1.60;;
59161;SDS011;44942;48.936;8.260;2022-11-18T05:17:39;1.85;;;1.75;;
59161;SDS011;44942;48.936;8.260;2022-11-18T05:22:39;2.33;;;1.80;;
59161;SDS011;44942;48.936;8.260;2022-11-18T05:27:40;3.63;;;1.73;;
59161;SDS011;44942;48.936;8.260;2022-11-18T05:32:41;2.20;;;1.70;;
59161;SDS011;44942;48.936;8.260;2022-11-18T05:37:41;2.20;;;1.70;;
59161;SDS011;44942;48.936;8.260;2022-11-18T05:42:42;2.10;;;1.40;;
59161;SDS011;44942;48.936;8.260;2022-11-18T05:48:01;2.00;;;1.75;;
59161;SDS011;44942;48.936;8.260;2022-11-18T05:53:03;4.38;;;1.48;;
59161;SDS011;44942;48.936;8.260;2022-11-18T05:58:04;2.13;;;1.67;;
59161;SDS011;44942;48.936;8.260;2022-11-18T06:03:06;2.33;;;1.60;;
59161;SDS011;44942;48.936;8.260;2022-11-18T06:08:12;3.97;;;1.80;;
59161;SDS011;44942;48.936;8.260;2022-11-18T06:13:16;1.88;;;1.50;;
59161;SDS011;44942;48.936;8.260;2022-11-18T06:18:24;2.45;;;1.60;;
59161;SDS011;44942;48.936;8.260;2022-11-18T06:23:30;1.90;;;1.60;;
59161;SDS011;44942;48.936;8.260;2022-11-18T06:28:33;1.90;;;1.30;;
59161;SDS011;44942;48.936;8.260;2022-11-18T06:33:35;2.60;;;1.80;;
59161;SDS011;44942;48.936;8.260;2022-11-18T06:38:36;4.10;;;1.60;;
59161;SDS011;44942;48.936;8.260;2022-11-18T06:43:36;1.80;;;0.63;;
59161;SDS011;44942;48.936;8.260;2022-11-18T06:48:40;4.38;;;1.05;;
59161;SDS011;44942;48.936;8.260;2022-11-18T06:53:41;2.73;;;0.97;;
59161;SDS011;44942;48.936;8.260;2022-11-18T06:58:42;2.83;;;1.00;;
59161;SDS011;44942;48.936;8.260;2022-11-18T07:03:43;1.97;;;1.10;;
59161;SDS011;44942;48.936;8.260;2022-11-18T07:08:45;3.40;;;1.10;;
59161;SDS011;44942;48.936;8.260;2022-11-18T07:13:46;0.90;;;0.75;;
59161;SDS011;44942;48.936;8.260;2022-11-18T07:18:47;3.63;;;0.90;;
59161;SDS011;44942;48.936;8.260;2022-11-18T07:23:49;1.90;;;0.95;;
59161;SDS011;44942;48.936;8.260;2022-11-18T07:28:49;1.10;;;0.90;;
59161;SDS011;44942;48.936;8.260;2022-11-18T07:33:50;1.03;;;0.77;;
59161;SDS011;44942;48.936;8.260;2022-11-18T07:38:54;1.80;;;0.90;;
59161;SDS011;44942;48.936;8.260;2022-11-18T07:43:59;1.67;;;0.80;;
59161;SDS011;44942;48.936;8.260;2022-11-18T07:49:01;1.67;;;1.10;;
59161;SDS011;44942;48.936;8.260;2022-11-18T07:54:05;1.77;;;1.23;;
59161;SDS011;44942;48.936;8.260;2022-11-18T07:59:07;1.75;;;0.85;;
59161;SDS011;44942;48.936;8.260;2022-11-18T08:04:08;1.53;;;1.00;;
59161;SDS011;44942;48.936;8.260;2022-11-18T08:09:11;1.27;;;0.73;;
59161;SDS011;44942;48.936;8.260;2022-11-18T08:14:11;0.63;;;0.60;;
59161;SDS011;44942;48.936;8.260;2022-11-18T08:19:12;2.30;;;0.70;;
59161;SDS011;44942;48.936;8.260;2022-11-18T08:24:12;1.77;;;1.00;;
59161;SDS011;44942;48.936;8.260;2022-11-18T08:29:13;1.40;;;0.70;;
59161;SDS011;44942;48.936;8.260;2022-11-18T08:34:13;1.70;;;0.90;;
59161;SDS011;44942;48.936;8.260;2022-11-18T08:39:14;2.10;;;0.90;;
59161;SDS011;44942;48.936;8.260;2022-11-18T08:44:15;1.27;;;0.90;;
59161;SDS011;44942;48.936;8.260;2022-11-18T08:54:16;0.93;;;0.83;;
59161;SDS011;44942;48.936;8.260;2022-11-18T08:59:17;1.73;;;0.70;;
59161;SDS011;44942;48.936;8.260;2022-11-18T09:04:18;1.17;;;0.80;;
59161;SDS011;44942;48.936;8.260;2022-11-18T09:09:18;4.07;;;1.20;;
59161;SDS011;44942;48.936;8.260;2022-11-18T09:14:19;1.45;;;0.90;;
59161;SDS011;44942;48.936;8.260;2022-11-18T09:19:20;2.47;;;0.63;;
59161;SDS011;44942;48.936;8.260;2022-11-18T09:24:20;1.67;;;1.00;;
59161;SDS011;44942;48.936;8.260;2022-11-18T09:29:21;1.70;;;0.90;;
59161;SDS011;44942;48.936;8.260;2022-11-18T09:34:24;1.02;;;0.77;;
59161;SDS011;44942;48.936;8.260;2022-11-18T09:39:25;1.17;;;0.80;;
59161;SDS011;44942;48.936;8.260;2022-11-18T09:49:47;1.48;;;1.00;;
59161;SDS011;44942;48.936;8.260;2022-11-18T09:54:48;0.75;;;0.70;;
59161;SDS011;44942;48.936;8.260;2022-11-18T09:59:49;0.70;;;0.70;;
59161;SDS011;44942;48.936;8.260;2022-11-18T10:04:50;1.58;;;0.90;;
59161;SDS011;44942;48.936;8.260;2022-11-18T10:09:51;2.17;;;1.10;;
59161;SDS011;44942;48.936;8.260;2022-11-18T10:25:26;1.25;;;1.02;;
59161;SDS011;44942;48.936;8.260;2022-11-18T10:30:27;1.40;;;0.80;;
59161;SDS011;44942;48.936;8.260;2022-11-18T10:35:31;1.20;;;0.90;;
59161;SDS011;44942;48.936;8.260;2022-11-18T10:40:36;0.90;;;0.85;;
59161;SDS011;44942;48.936;8.260;2022-11-18T10:46:06;1.05;;;0.85;;
59161;SDS011;44942;48.936;8.260;2022-11-18T10:51:26;1.00;;;0.80;;
59161;SDS011;44942;48.936;8.260;2022-11-18T10:56:26;0.93;;;0.80;;
59161;SDS011;44942;48.936;8.260;2022-11-18T11:01:27;5.00;;;2.75;;
59161;SDS011;44942;48.936;8.260;2022-11-18T11:06:32;4.93;;;3.63;;
59161;SDS011;44942;48.936;8.260;2022-11-18T11:11:37;7.22;;;4.78;;
59161;SDS011;44942;48.936;8.260;2022-11-18T11:22:11;5.88;;;2.60;;
59161;SDS011;44942;48.936;8.260;2022-11-18T11:27:14;6.80;;;4.00;;
59161;SDS011;44942;48.936;8.260;2022-11-18T11:32:25;5.40;;;2.42;;
59161;SDS011;44942;48.936;8.260;2022-11-18T11:43:08;6.53;;;2.63;;
59161;SDS011;44942;48.936;8.260;2022-11-18T11:48:31;8.02;;;4.55;;
59161;SDS011;44942;48.936;8.260;2022-11-18T11:53:52;5.97;;;3.47;;
59161;SDS011;44942;48.936;8.260;2022-11-18T11:59:16;15.13;;;3.08;;
59161;SDS011;44942;48.936;8.260;2022-11-18T12:04:37;5.78;;;2.55;;
59161;SDS011;44942;48.936;8.260;2022-11-18T12:20:59;5.38;;;2.45;;
59161;SDS011;44942;48.936;8.260;2022-11-18T12:26:04;4.47;;;2.27;;
59161;SDS011;44942;48.936;8.260;2022-11-18T12:36:30;9.73;;;2.38;;
59161;SDS011;44942;48.936;8.260;2022-11-18T12:47:00;4.43;;;2.20;;
59161;SDS011;44942;48.936;8.260;2022-11-18T12:52:02;3.45;;;1.95;;
59161;SDS011;44942;48.936;8.260;2022-11-18T13:02:19;7.22;;;2.38;;
59161;SDS011;44942;48.936;8.260;2022-11-18T13:07:22;5.95;;;1.85;;
59161;SDS011;44942;48.936;8.260;2022-11-18T13:12:42;5.38;;;1.90;;
59161;SDS011;44942;48.936;8.260;2022-11-18T13:33:50;2.63;;;1.80;;
59161;SDS011;44942;48.936;8.260;2022-11-18T13:43:55;3.30;;;1.75;;
59161;SDS011;44942;48.936;8.260;2022-11-18T13:48:56;4.50;;;2.07;;
59161;SDS011;44942;48.936;8.260;2022-11-18T13:53:58;5.25;;;2.45;;
59161;SDS011;44942;48.936;8.260;2022-11-18T13:58:58;2.13;;;1.77;;
59161;SDS011;44942;48.936;8.260;2022-11-18T14:04:06;3.15;;;1.33;;
59161;SDS011;44942;48.936;8.260;2022-11-18T14:14:26;2.40;;;1.90;;
59161;SDS011;44942;48.936;8.260;2022-11-18T14:19:34;2.33;;;1.90;;
59161;SDS011;44942;48.936;8.260;2022-11-18T14:24:35;3.58;;;1.85;;
59161;SDS011;44942;48.936;8.260;2022-11-18T14:29:36;2.70;;;1.60;;
59161;SDS011;44942;48.936;8.260;2022-11-18T14:34:36;2.60;;;1.53;;
59161;SDS011;44942;48.936;8.260;2022-11-18T14:39:37;2.97;;;2.20;;
59161;SDS011;44942;48.936;8.260;2022-11-18T14:44:37;5.50;;;2.20;;
59161;SDS011;44942;48.936;8.260;2022-11-18T14:49:38;2.73;;;2.00;;
59161;SDS011;44942;48.936;8.260;2022-11-18T14:54:39;3.67;;;2.40;;
59161;SDS011;44942;48.936;8.260;2022-11-18T14:59:39;2.33;;;2.00;;
59161;SDS011;44942;48.936;8.260;2022-11-18T15:04:40;3.53;;;2.30;;
59161;SDS011;44942;48.936;8.260;2022-11-18T15:09:40;3.43;;;1.77;;
59161;SDS011;44942;48.936;8.260;2022-11-18T15:14:41;12.10;;;10.90;;
59161;SDS011;44942;48.936;8.260;2022-11-18T15:19:42;7.07;;;3.70;;
59161;SDS011;44942;48.936;8.260;2022-11-18T15:24:42;7.43;;;4.30;;
59161;SDS011;44942;48.936;8.260;2022-11-18T15:29:43;5.40;;;4.27;;
59161;SDS011;44942;48.936;8.260;2022-11-18T15:34:43;7.27;;;4.80;;
59161;SDS011;44942;48.936;8.260;2022-11-18T15:39:44;4.67;;;3.43;;
59161;SDS011;44942;48.936;8.260;2022-11-18T15:44:44;4.87;;;3.13;;
59161;SDS011;44942;48.936;8.260;2022-11-18T15:49:45;3.63;;;2.80;;
59161;SDS011;44942;48.936;8.260;2022-11-18T15:54:45;3.70;;;2.40;;
59161;SDS011;44942;48.936;8.260;2022-11-18T15:59:46;5.23;;;3.37;;
59161;SDS011;44942;48.936;8.260;2022-11-18T16:04:47;12.02;;;6.95;;
59161;SDS011;44942;48.936;8.260;2022-11-18T16:09:48;15.03;;;3.00;;
59161;SDS011;44942;48.936;8.260;2022-11-18T16:15:07;12.48;;;5.60;;
59161;SDS011;44942;48.936;8.260;2022-11-18T16:20:27;6.60;;;4.50;;
59161;SDS011;44942;48.936;8.260;2022-11-18T16:25:27;6.60;;;4.35;;
59161;SDS011;44942;48.936;8.260;2022-11-18T16:30:28;7.87;;;4.27;;
59161;SDS011;44942;48.936;8.260;2022-11-18T16:35:50;6.10;;;4.57;;
59161;SDS011;44942;48.936;8.260;2022-11-18T16:40:54;10.97;;;7.07;;
59161;SDS011;44942;48.936;8.260;2022-11-18T16:45:55;5.80;;;4.47;;
59161;SDS011;44942;48.936;8.260;2022-11-18T16:51:05;8.43;;;4.60;;
59161;SDS011;44942;48.936;8.260;2022-11-18T16:56:15;6.97;;;4.90;;
59161;SDS011;44942;48.936;8.260;2022-11-18T17:01:16;7.10;;;4.40;;
59161;SDS011;44942;48.936;8.260;2022-11-18T17:06:17;7.73;;;4.93;;
59161;SDS011;44942;48.936;8.260;2022-11-18T17:11:18;7.30;;;4.50;;
59161;SDS011;44942;48.936;8.260;2022-11-18T17:16:19;15.13;;;10.68;;
59161;SDS011;44942;48.936;8.260;2022-11-18T17:21:21;35.08;;;21.98;;
59161;SDS011;44942;48.936;8.260;2022-11-18T17:26:26;53.00;;;31.00;;
59161;SDS011;44942;48.936;8.260;2022-11-18T17:31:27;69.93;;;42.63;;
59161;SDS011;44942;48.936;8.260;2022-11-18T17:36:27;80.63;;;45.77;;
59161;SDS011;44942;48.936;8.260;2022-11-18T17:41:28;70.07;;;40.47;;
59161;SDS011;44942;48.936;8.260;2022-11-18T17:46:47;65.05;;;39.83;;
59161;SDS011;44942;48.936;8.260;2022-11-18T17:51:48;60.63;;;37.17;;
59161;SDS011;44942;48.936;8.260;2022-11-18T17:56:50;63.28;;;37.45;;
59161;SDS011;44942;48.936;8.260;2022-11-18T18:01:53;60.03;;;36.30;;
59161;SDS011;44942;48.936;8.260;2022-11-18T18:06:54;57.83;;;36.05;;
59161;SDS011;44942;48.936;8.260;2022-11-18T18:11:54;57.23;;;33.80;;
59161;SDS011;44942;48.936;8.260;2022-11-18T18:16:55;56.67;;;34.23;;
59161;SDS011;44942;48.936;8.260;2022-11-18T18:21:55;58.50;;;34.17;;
59161;SDS011;44942;48.936;8.260;2022-11-18T18:26:56;55.90;;;33.00;;
59161;SDS011;44942;48.936;8.260;2022-11-18T18:31:56;54.17;;;31.80;;
59161;SDS011;44942;48.936;8.260;2022-11-18T18:37:01;53.17;;;32.60;;
59161;SDS011;44942;48.936;8.260;2022-11-18T18:42:02;52.03;;;31.48;;
59161;SDS011;44942;48.936;8.260;2022-11-18T18:47:02;46.92;;;28.77;;
59161;SDS011;44942;48.936;8.260;2022-11-18T18:52:03;44.70;;;28.03;;
59161;SDS011;44942;48.936;8.260;2022-11-18T18:57:03;42.53;;;26.27;;
59161;SDS011;44942;48.936;8.260;2022-11-18T19:02:04;42.13;;;25.33;;
59161;SDS011;44942;48.936;8.260;2022-11-18T19:07:05;36.83;;;23.43;;
59161;SDS011;44942;48.936;8.260;2022-11-18T19:12:05;38.70;;;23.73;;
59161;SDS011;44942;48.936;8.260;2022-11-18T19:17:24;33.42;;;21.20;;
59161;SDS011;44942;48.936;8.260;2022-11-18T19:22:27;33.57;;;22.30;;
59161;SDS011;44942;48.936;8.260;2022-11-18T19:27:29;33.55;;;22.08;;
59161;SDS011;44942;48.936;8.260;2022-11-18T19:32:30;36.77;;;21.70;;
59161;SDS011;44942;48.936;8.260;2022-11-18T19:37:33;32.35;;;19.85;;
59161;SDS011;44942;48.936;8.260;2022-11-18T19:42:34;30.58;;;19.20;;
59161;SDS011;44942;48.936;8.260;2022-11-18T19:47:35;30.10;;;19.13;;
59161;SDS011;44942;48.936;8.260;2022-11-18T19:52:36;29.25;;;18.20;;
59161;SDS011;44942;48.936;8.260;2022-11-18T19:57:37;29.20;;;17.87;;
59161;SDS011;44942;48.936;8.260;2022-11-18T20:02:37;25.63;;;15.73;;
59161;SDS011;44942;48.936;8.260;2022-11-18T20:07:38;26.97;;;16.90;;
59161;SDS011;44942;48.936;8.260;2022-11-18T20:12:39;25.50;;;16.58;;
59161;SDS011;44942;48.936;8.260;2022-11-18T20:17:39;22.03;;;14.37;;
59161;SDS011;44942;48.936;8.260;2022-11-18T20:22:40;21.57;;;14.73;;
59161;SDS011;44942;48.936;8.260;2022-11-18T20:27:40;22.20;;;14.33;;
59161;SDS011;44942;48.936;8.260;2022-11-18T20:32:41;21.47;;;14.67;;
59161;SDS011;44942;48.936;8.260;2022-11-18T20:37:42;24.35;;;15.32;;
59161;SDS011;44942;48.936;8.260;2022-11-18T20:42:42;21.20;;;13.37;;
59161;SDS011;44942;48.936;8.260;2022-11-18T20:48:02;20.35;;;13.25;;
59161;SDS011;44942;48.936;8.260;2022-11-18T20:53:03;20.17;;;12.77;;
59161;SDS011;44942;48.936;8.260;2022-11-18T20:58:04;22.02;;;12.88;;
59161;SDS011;44942;48.936;8.260;2022-11-18T21:03:06;19.10;;;12.50;;
59161;SDS011;44942;48.936;8.260;2022-11-18T21:08:09;24.00;;;12.32;;
59161;SDS011;44942;48.936;8.260;2022-11-18T21:13:10;15.37;;;10.80;;
59161;SDS011;44942;48.936;8.260;2022-11-18T21:18:29;17.63;;;11.20;;
59161;SDS011;44942;48.936;8.260;2022-11-18T21:23:30;18.10;;;10.93;;
59161;SDS011;44942;48.936;8.260;2022-11-18T21:28:30;16.43;;;10.97;;
59161;SDS011;44942;48.936;8.260;2022-11-18T21:33:31;15.03;;;11.20;;
59161;SDS011;44942;48.936;8.260;2022-11-18T21:38:31;16.47;;;10.63;;
59161;SDS011;44942;48.936;8.260;2022-11-18T21:43:32;17.33;;;11.57;;
59161;SDS011;44942;48.936;8.260;2022-11-18T21:48:34;15.23;;;10.00;;
59161;SDS011;44942;48.936;8.260;2022-11-18T21:53:35;15.02;;;10.13;;
59161;SDS011;44942;48.936;8.260;2022-11-18T21:58:36;15.40;;;10.35;;
59161;SDS011;44942;48.936;8.260;2022-11-18T22:03:38;15.82;;;10.63;;
59161;SDS011;44942;48.936;8.260;2022-11-18T22:08:40;13.85;;;8.75;;
59161;SDS011;44942;48.936;8.260;2022-11-18T22:13:41;12.35;;;8.43;;
59161;SDS011;44942;48.936;8.260;2022-11-18T22:23:44;9.93;;;7.60;;
59161;SDS011;44942;48.936;8.260;2022-11-18T22:28:45;10.70;;;7.82;;
59161;SDS011;44942;48.936;8.260;2022-11-18T22:33:47;11.43;;;7.88;;
59161;SDS011;44942;48.936;8.260;2022-11-18T22:38:49;10.57;;;7.50;;
59161;SDS011;44942;48.936;8.260;2022-11-18T22:43:49;10.90;;;6.73;;
59161;SDS011;44942;48.936;8.260;2022-11-18T22:48:50;11.07;;;7.80;;
59161;SDS011;44942;48.936;8.260;2022-11-18T22:53:51;11.17;;;8.07;;
59161;SDS011;44942;48.936;8.260;2022-11-18T22:58:51;10.93;;;7.63;;
59161;SDS011;44942;48.936;8.260;2022-11-18T23:03:52;10.87;;;7.80;;
59161;SDS011;44942;48.936;8.260;2022-11-18T23:08:53;10.23;;;6.82;;
59161;SDS011;44942;48.936;8.260;2022-11-18T23:13:54;10.70;;;7.13;;
59161;SDS011;44942;48.936;8.260;2022-11-18T23:18:54;10.70;;;7.77;;
59161;SDS011;44942;48.936;8.260;2022-11-18T23:23:55;10.10;;;7.33;;
59161;SDS011;44942;48.936;8.260;2022-11-18T23:28:56;8.73;;;6.72;;
59161;SDS011;44942;48.936;8.260;2022-11-18T23:33:57;11.02;;;7.18;;
59161;SDS011;44942;48.936;8.260;2022-11-18T23:38:57;9.40;;;6.32;;
59161;SDS011;44942;48.936;8.260;2022-11-18T23:43:58;8.77;;;6.00;;
59161;SDS011;44942;48.936;8.260;2022-11-18T23:48:58;8.03;;;5.57;;
59161;SDS011;44942;48.936;8.260;2022-11-18T23:53:59;8.43;;;5.80;;
59161;SDS011;44942;48.936;8.260;2022-11-18T23:59:00;9.13;;;5.77;;
